Time,TemperatureF,DewpointF,PressureIn,WindDirection,WindDirectionDegrees,WindSpeedMPH,WindSpeedGustMPH,Humidity,HourlyPrecipIn,Conditions,Clouds,dailyrainin,SolarRadiationWatts/m^2,SoftwareType,DateUTC
2013-05-17 00:02:00,55.0,50.0,-100.00,NW,314,6.0,13.0,83,0.00,,,0.49,0.000000,,2013-05-17 06:02:00,
2013-05-17 00:11:00,55.0,50.0,-100.00,NW,314,6.0,13.0,83,0.00,,,0.49,0.000000,,2013-05-17 06:11:00,
2013-05-17 00:42:00,56.0,49.0,-100.00,WNW,289,5.0,11.0,76,0.00,,,0.49,0.000000,,2013-05-17 06:42:00,
2013-05-17 00:52:00,56.0,49.0,-100.00,WNW,289,5.0,11.0,76,0.00,,,0.49,0.000000,,2013-05-17 06:52:00,
2013-05-17 01:02:00,56.0,49.0,-100.00,WNW,289,5.0,11.0,76,0.00,,,0.49,0.000000,,2013-05-17 07:02:00,
2013-05-17 01:11:00,56.0,49.0,-100.00,WNW,289,5.0,11.0,76,0.00,,,0.49,0.000000,,2013-05-17 07:11:00,
2013-05-17 01:43:00,54.0,49.0,-100.00,WSW,246,2.0,6.0,83,0.00,,,0.47,0.000000,,2013-05-17 07:43:00,
2013-05-17 01:53:00,54.0,49.0,-100.00,WSW,246,2.0,6.0,83,0.00,,,0.47,0.000000,,2013-05-17 07:53:00,
2013-05-17 02:02:00,54.0,49.0,-100.00,WSW,246,2.0,6.0,83,0.00,,,0.47,0.000000,,2013-05-17 08:02:00,
2013-05-17 02:12:00,54.0,49.0,-100.00,WSW,246,2.0,6.0,83,0.00,,,0.47,0.000000,,2013-05-17 08:12:00,
2013-05-17 02:43:00,51.0,48.0,-100.00,South,187,3.0,6.0,89,0.00,,,0.43,0.000000,,2013-05-17 08:43:00,
2013-05-17 02:52:00,51.0,48.0,-100.00,South,187,3.0,6.0,89,0.00,,,0.43,0.000000,,2013-05-17 08:52:00,
2013-05-17 03:02:00,51.0,48.0,-100.00,South,187,3.0,6.0,89,0.00,,,0.43,0.000000,,2013-05-17 09:02:00,
2013-05-17 03:12:00,51.0,48.0,-100.00,South,187,3.0,6.0,89,0.00,,,0.43,0.000000,,2013-05-17 09:12:00,
2013-05-17 03:33:00,53.0,47.0,-100.00,West,273,3.0,8.0,81,0.00,,,0.43,0.000000,,2013-05-17 09:33:00,
2013-05-17 03:42:00,53.0,47.0,-100.00,West,273,3.0,8.0,81,0.00,,,0.43,0.000000,,2013-05-17 09:42:00,
2013-05-17 03:53:00,53.0,47.0,-100.00,West,273,3.0,8.0,81,0.00,,,0.43,0.000000,,2013-05-17 09:53:00,
2013-05-17 04:03:00,53.0,47.0,-100.00,West,273,3.0,8.0,81,0.00,,,0.43,0.000000,,2013-05-17 10:03:00,
2013-05-17 04:12:00,53.0,47.0,-100.00,West,273,3.0,8.0,81,0.00,,,0.43,0.000000,,2013-05-17 10:12:00,
2013-05-17 04:42:00,51.0,47.0,-100.00,South,178,2.0,4.0,87,0.00,,,0.42,0.000000,,2013-05-17 10:42:00,
2013-05-17 04:54:00,51.0,47.0,-100.00,South,178,2.0,4.0,87,0.00,,,0.42,0.000000,,2013-05-17 10:54:00,
2013-05-17 05:02:00,51.0,47.0,-100.00,South,178,2.0,4.0,87,0.00,,,0.42,0.000000,,2013-05-17 11:02:00,
2013-05-17 05:12:00,51.0,47.0,-100.00,South,178,2.0,4.0,87,0.00,,,0.42,0.000000,,2013-05-17 11:12:00,
2013-05-17 05:34:00,53.0,49.0,-100.00,SE,142,2.0,5.0,86,0.00,,,0.41,0.000000,,2013-05-17 11:34:00,
2013-05-17 05:42:00,53.0,49.0,-100.00,SE,142,2.0,5.0,86,0.00,,,0.41,0.000000,,2013-05-17 11:42:00,
2013-05-17 05:53:00,53.0,49.0,-100.00,SE,142,2.0,5.0,86,0.00,,,0.41,0.000000,,2013-05-17 11:53:00,
2013-05-17 06:03:00,53.0,49.0,-100.00,SE,142,2.0,5.0,86,0.00,,,0.41,0.000000,,2013-05-17 12:03:00,
2013-05-17 06:12:00,53.0,49.0,-100.00,SE,142,2.0,5.0,86,0.00,,,0.41,0.000000,,2013-05-17 12:12:00,
2013-05-17 06:33:00,54.0,51.0,-100.00,SSE,168,2.0,9.0,88,0.00,,,0.41,17.000000,,2013-05-17 12:33:00,
2013-05-17 06:43:00,54.0,51.0,-100.00,SSE,168,2.0,9.0,88,0.00,,,0.41,17.000000,,2013-05-17 12:43:00,
2013-05-17 06:53:00,54.0,51.0,-100.00,SSE,168,2.0,9.0,88,0.00,,,0.41,17.000000,,2013-05-17 12:53:00,
2013-05-17 07:03:00,54.0,51.0,-100.00,SSE,168,2.0,9.0,88,0.00,,,0.41,17.000000,,2013-05-17 13:03:00,
2013-05-17 07:12:00,54.0,51.0,-100.00,SSE,168,2.0,9.0,88,0.00,,,0.41,17.000000,,2013-05-17 13:12:00,
2013-05-17 07:13:00,55.0,52.0,-100.00,NNW,339,4.0,7.0,88,0.00,,,0.41,66.000000,,2013-05-17 13:13:00,
2013-05-17 07:33:00,55.0,52.0,-100.00,NNW,339,4.0,7.0,88,0.00,,,0.41,66.000000,,2013-05-17 13:33:00,
2013-05-17 07:42:00,55.0,52.0,-100.00,NNW,339,4.0,7.0,88,0.00,,,0.41,66.000000,,2013-05-17 13:42:00,
2013-05-17 07:52:00,55.0,52.0,-100.00,NNW,339,4.0,7.0,88,0.00,,,0.41,66.000000,,2013-05-17 13:52:00,
2013-05-17 08:02:00,55.0,52.0,-100.00,NNW,339,4.0,7.0,88,0.00,,,0.41,66.000000,,2013-05-17 14:02:00,
2013-05-17 08:13:00,60.0,53.0,-100.00,SE,144,2.0,6.0,77,0.00,,,0.41,214.000000,,2013-05-17 14:13:00,
2013-05-17 08:43:00,60.0,53.0,-100.00,SE,144,2.0,6.0,77,0.00,,,0.41,214.000000,,2013-05-17 14:43:00,
2013-05-17 08:53:00,60.0,53.0,-100.00,SE,144,2.0,6.0,77,0.00,,,0.41,214.000000,,2013-05-17 14:53:00,
2013-05-17 09:03:00,60.0,53.0,-100.00,SE,144,2.0,6.0,77,0.00,,,0.41,214.000000,,2013-05-17 15:03:00,
2013-05-17 09:13:00,62.0,54.0,-100.00,NNE,33,6.0,9.0,76,0.00,,,0.41,374.000000,,2013-05-17 15:13:00,
2013-05-17 09:47:00,62.0,54.0,-100.00,NNE,33,6.0,9.0,76,0.00,,,0.41,374.000000,,2013-05-17 15:47:00,
2013-05-17 09:57:00,62.0,54.0,-100.00,NNE,33,6.0,9.0,76,0.00,,,0.41,374.000000,,2013-05-17 15:57:00,
2013-05-17 10:07:00,62.0,54.0,-100.00,NNE,33,6.0,9.0,76,0.00,,,0.41,374.000000,,2013-05-17 16:07:00,
2013-05-17 10:13:00,65.0,55.0,-100.00,NE,49,5.0,10.0,70,0.00,,,0.41,642.000000,,2013-05-17 16:13:00,
2013-05-17 10:37:00,65.0,55.0,-100.00,NE,49,5.0,10.0,70,0.00,,,0.41,642.000000,,2013-05-17 16:37:00,
2013-05-17 10:50:00,65.0,55.0,-100.00,NE,49,5.0,10.0,70,0.00,,,0.41,642.000000,,2013-05-17 16:50:00,
2013-05-17 10:56:00,65.0,55.0,-100.00,NE,49,5.0,10.0,70,0.00,,,0.41,642.000000,,2013-05-17 16:56:00,
2013-05-17 11:08:00,65.0,55.0,-100.00,NE,49,5.0,10.0,70,0.00,,,0.41,642.000000,,2013-05-17 17:08:00,
2013-05-17 11:13:00,66.0,56.0,-100.00,NE,46,8.0,13.0,69,0.00,,,0.41,632.000000,,2013-05-17 17:13:00,
2013-05-17 11:40:00,66.0,-99.9,-100.00,NE,46,8.0,13.0,69,0.00,,,0.41,632.000000,,2013-05-17 17:40:00,
2013-05-17 11:49:00,66.0,56.0,-100.00,NE,46,8.0,13.0,69,0.00,,,0.41,632.000000,,2013-05-17 17:49:00,
2013-05-17 12:00:00,66.0,-99.9,-100.00,NE,46,8.0,13.0,69,0.00,,,0.41,632.000000,,2013-05-17 18:00:00,
2013-05-17 12:09:00,66.0,56.0,-100.00,NE,46,8.0,13.0,69,0.00,,,0.41,632.000000,,2013-05-17 18:09:00,
2013-05-17 12:13:00,69.0,55.0,-100.00,NE,35,11.0,18.0,61,0.00,,,0.41,911.000000,,2013-05-17 18:13:00,
2013-05-17 12:50:00,-999.0,-99.9,-100.00,NE,35,11.0,18.0,61,0.00,,,0.41,911.000000,,2013-05-17 18:50:00,
2013-05-17 13:00:00,69.0,-99.9,-100.00,NE,35,11.0,18.0,61,0.00,,,0.41,911.000000,,2013-05-17 19:00:00,
2013-05-17 13:10:00,69.0,55.0,-100.00,NE,35,11.0,18.0,61,0.00,,,0.41,911.000000,,2013-05-17 19:10:00,
2013-05-17 13:13:00,70.0,55.0,-100.00,NE,41,11.0,17.0,59,0.00,,,0.41,960.000000,,2013-05-17 19:13:00,
2013-05-17 13:40:00,70.0,55.0,-100.00,NE,41,11.0,17.0,59,0.00,,,0.41,960.000000,,2013-05-17 19:40:00,
2013-05-17 13:51:00,70.0,55.0,-100.00,NE,41,11.0,17.0,59,0.00,,,0.41,960.000000,,2013-05-17 19:51:00,
2013-05-17 14:01:00,-999.0,-99.9,-100.00,NE,41,11.0,17.0,59,0.00,,,0.41,960.000000,,2013-05-17 20:01:00,
2013-05-17 14:09:00,70.0,55.0,-100.00,NE,41,11.0,17.0,59,0.00,,,0.41,960.000000,,2013-05-17 20:09:00,
2013-05-17 14:13:00,73.0,55.0,-100.00,ENE,60,10.0,18.0,53,0.00,,,0.41,962.000000,,2013-05-17 20:13:00,
2013-05-17 14:50:00,73.0,55.0,-100.00,ENE,60,10.0,18.0,53,0.00,,,0.41,962.000000,,2013-05-17 20:50:00,
2013-05-17 14:58:00,73.0,55.0,-100.00,ENE,60,10.0,18.0,53,0.00,,,0.41,962.000000,,2013-05-17 20:58:00,
2013-05-17 15:07:00,73.0,55.0,-100.00,ENE,60,10.0,18.0,53,0.00,,,0.41,962.000000,,2013-05-17 21:07:00,
2013-05-17 15:13:00,71.0,53.0,-100.00,NE,41,9.0,19.0,53,0.00,,,0.41,873.000000,,2013-05-17 21:13:00,
2013-05-17 15:39:00,71.0,53.0,-100.00,NE,41,9.0,19.0,53,0.00,,,0.41,873.000000,,2013-05-17 21:39:00,
2013-05-17 15:49:00,71.0,53.0,-100.00,NE,41,9.0,19.0,53,0.00,,,0.41,873.000000,,2013-05-17 21:49:00,
2013-05-17 15:58:00,71.0,53.0,-100.00,NE,41,9.0,19.0,53,0.00,,,0.41,873.000000,,2013-05-17 21:58:00,
2013-05-17 16:07:00,71.0,53.0,-100.00,NE,41,9.0,19.0,53,0.00,,,0.41,873.000000,,2013-05-17 22:07:00,
2013-05-17 16:13:00,74.0,54.0,-100.00,NNE,22,9.0,15.0,50,0.00,,,0.41,784.000000,,2013-05-17 22:13:00,
2013-05-17 16:38:00,74.0,54.0,-100.00,NNE,22,9.0,15.0,50,0.00,,,0.41,784.000000,,2013-05-17 22:38:00,
2013-05-17 16:47:00,74.0,54.0,-100.00,NNE,22,9.0,15.0,50,0.00,,,0.41,784.000000,,2013-05-17 22:47:00,
2013-05-17 16:55:00,74.0,54.0,-100.00,NNE,22,9.0,15.0,50,0.00,,,0.41,784.000000,,2013-05-17 22:55:00,
2013-05-17 17:04:00,74.0,54.0,-100.00,NNE,22,9.0,15.0,50,0.00,,,0.41,784.000000,,2013-05-17 23:04:00,
2013-05-17 17:13:00,73.0,55.0,-100.00,NE,38,11.0,19.0,53,0.00,,,0.41,738.000000,,2013-05-17 23:13:00,
2013-05-17 17:38:00,73.0,55.0,-100.00,NE,38,11.0,19.0,53,0.00,,,0.41,738.000000,,2013-05-17 23:38:00,
2013-05-17 17:47:00,73.0,55.0,-100.00,NE,38,11.0,19.0,53,0.00,,,0.41,738.000000,,2013-05-17 23:47:00,
2013-05-17 17:54:00,73.0,55.0,-100.00,NE,38,11.0,19.0,53,0.00,,,0.41,738.000000,,2013-05-17 23:54:00,
2013-05-17 18:02:00,73.0,55.0,-100.00,NE,38,11.0,19.0,53,0.00,,,0.41,738.000000,,2013-05-18 00:02:00,
2013-05-17 18:13:00,71.0,54.0,-100.00,NNE,23,11.0,17.0,56,0.00,,,0.06,261.000000,,2013-05-18 00:13:00,
2013-05-17 18:34:00,71.0,54.0,-100.00,NNE,23,11.0,17.0,56,0.00,,,0.06,261.000000,,2013-05-18 00:34:00,
2013-05-17 18:45:00,71.0,54.0,-100.00,NNE,23,11.0,17.0,56,0.00,,,0.06,261.000000,,2013-05-18 00:45:00,
2013-05-17 18:54:00,71.0,54.0,-100.00,NNE,23,11.0,17.0,56,0.00,,,0.06,261.000000,,2013-05-18 00:54:00,
2013-05-17 19:03:00,71.0,54.0,-100.00,NNE,23,11.0,17.0,56,0.00,,,0.06,261.000000,,2013-05-18 01:03:00,
2013-05-17 19:32:00,70.0,54.0,-100.00,North,9,12.0,18.0,57,0.00,,,0.05,238.000000,,2013-05-18 01:32:00,
2013-05-17 19:43:00,70.0,54.0,-100.00,North,9,12.0,18.0,57,0.00,,,0.05,238.000000,,2013-05-18 01:43:00,
2013-05-17 19:52:00,70.0,54.0,-100.00,North,9,12.0,18.0,57,0.00,,,0.05,238.000000,,2013-05-18 01:52:00,
2013-05-17 20:02:00,70.0,54.0,-100.00,North,9,12.0,18.0,57,0.00,,,0.05,238.000000,,2013-05-18 02:02:00,
2013-05-17 20:12:00,70.0,54.0,-100.00,North,9,12.0,18.0,57,0.00,,,0.05,238.000000,,2013-05-18 02:12:00,
2013-05-17 20:43:00,67.0,54.0,-100.00,NE,51,4.0,18.0,62,0.00,,,0.05,67.000000,,2013-05-18 02:43:00,
2013-05-17 20:54:00,67.0,54.0,-100.00,NE,51,4.0,18.0,62,0.00,,,0.05,67.000000,,2013-05-18 02:54:00,
2013-05-17 21:02:00,67.0,54.0,-100.00,NE,51,4.0,18.0,62,0.00,,,0.05,67.000000,,2013-05-18 03:02:00,
2013-05-17 21:12:00,67.0,54.0,-100.00,NE,51,4.0,18.0,62,0.00,,,0.05,67.000000,,2013-05-18 03:12:00,
2013-05-17 21:33:00,64.0,55.0,-100.00,NNE,29,4.0,11.0,72,0.00,,,0.05,0.000000,,2013-05-18 03:33:00,
2013-05-17 21:43:00,64.0,55.0,-100.00,NNE,29,4.0,11.0,72,0.00,,,0.05,0.000000,,2013-05-18 03:43:00,
2013-05-17 21:53:00,64.0,55.0,-100.00,NNE,29,4.0,11.0,72,0.00,,,0.05,0.000000,,2013-05-18 03:53:00,
2013-05-17 22:03:00,64.0,55.0,-100.00,NNE,29,4.0,11.0,72,0.00,,,0.05,0.000000,,2013-05-18 04:03:00,
2013-05-17 22:12:00,64.0,55.0,-100.00,NNE,29,4.0,11.0,72,0.00,,,0.05,0.000000,,2013-05-18 04:12:00,
2013-05-17 22:33:00,61.0,51.0,-100.00,NW,315,4.0,8.0,69,0.00,,,0.00,0.000000,,2013-05-18 04:33:00,
2013-05-17 22:43:00,61.0,51.0,-100.00,NW,315,4.0,8.0,69,0.00,,,0.00,0.000000,,2013-05-18 04:43:00,
2013-05-17 22:52:00,61.0,51.0,-100.00,NW,315,4.0,8.0,69,0.00,,,0.00,0.000000,,2013-05-18 04:52:00,
2013-05-17 23:02:00,61.0,51.0,-100.00,NW,315,4.0,8.0,69,0.00,,,0.00,0.000000,,2013-05-18 05:02:00,
2013-05-17 23:12:00,61.0,51.0,-100.00,NW,315,4.0,8.0,69,0.00,,,0.00,0.000000,,2013-05-18 05:12:00,
2013-05-17 23:32:00,61.0,47.0,-100.00,NW,306,5.0,9.0,61,0.00,,,0.00,0.000000,,2013-05-18 05:32:00,
2013-05-17 23:42:00,61.0,47.0,-100.00,NW,306,5.0,9.0,61,0.00,,,0.00,0.000000,,2013-05-18 05:42:00,
2013-05-17 23:52:00,61.0,47.0,-100.00,NW,306,5.0,9.0,61,0.00,,,0.00,0.000000,,2013-05-18 05:52:00,